createdAt,value
2018-08-25T00:02:16.368Z,13.50
2018-08-25T00:04:44.980Z,13.50
2018-08-25T00:07:13.736Z,13.40
2018-08-25T00:09:42.525Z,13.40
2018-08-25T00:12:11.238Z,13.30
2018-08-25T00:14:39.798Z,13.40
2018-08-25T00:17:08.367Z,13.50
2018-08-25T00:19:36.990Z,13.50
2018-08-25T00:22:05.562Z,13.40
2018-08-25T00:24:34.346Z,13.50
2018-08-25T00:27:03.274Z,13.40
2018-08-25T00:29:31.851Z,13.50
2018-08-25T00:32:00.461Z,13.40
2018-08-25T00:34:29.273Z,13.40
2018-08-25T00:36:58.115Z,13.40
2018-08-25T00:39:26.685Z,13.40
2018-08-25T00:41:55.535Z,13.30
2018-08-25T00:44:24.242Z,13.20
2018-08-25T00:46:53.028Z,13.20
2018-08-25T00:49:21.764Z,13.30
2018-08-25T00:51:50.350Z,13.20
2018-08-25T00:54:19.072Z,13.20
2018-08-25T00:56:47.796Z,13.30
2018-08-25T00:59:16.718Z,13.40
2018-08-25T01:01:45.302Z,13.30
2018-08-25T01:04:13.990Z,13.40
2018-08-25T01:06:43.779Z,13.20
2018-08-25T01:09:12.535Z,13.30
2018-08-25T01:11:41.321Z,13.30
2018-08-25T01:14:09.897Z,13.40
2018-08-25T01:16:38.458Z,13.40
2018-08-25T01:19:07.935Z,13.30
2018-08-25T01:21:36.579Z,13.20
2018-08-25T01:24:05.336Z,13.10
2018-08-25T01:26:33.943Z,13.20
2018-08-25T01:29:02.753Z,13.20
2018-08-25T01:31:31.805Z,13.20
2018-08-25T01:34:01.324Z,13.20
2018-08-25T01:36:29.999Z,13.20
2018-08-25T01:38:58.545Z,13.10
2018-08-25T01:41:27.106Z,13.20
2018-08-25T01:43:55.665Z,13.20
2018-08-25T01:46:24.223Z,13.20
2018-08-25T01:48:52.806Z,13.20
2018-08-25T01:51:21.560Z,13.10
2018-08-25T01:53:50.167Z,13.10
2018-08-25T01:56:18.796Z,13.00
2018-08-25T01:58:47.326Z,13.10
2018-08-25T02:01:15.912Z,13.10
2018-08-25T02:03:44.773Z,13.10
2018-08-25T02:06:13.350Z,13.00
2018-08-25T02:08:42.208Z,13.00
2018-08-25T02:11:10.816Z,12.90
2018-08-25T02:13:39.556Z,13.00
2018-08-25T02:16:08.290Z,13.00
2018-08-25T02:18:36.839Z,13.00
2018-08-25T02:21:05.568Z,13.00
2018-08-25T02:23:34.123Z,13.00
2018-08-25T02:26:02.675Z,13.10
2018-08-25T02:28:31.212Z,13.10
2018-08-25T02:30:59.755Z,13.20
2018-08-25T02:33:28.330Z,13.20
2018-08-25T02:35:56.980Z,13.10
2018-08-25T02:38:25.616Z,13.20
2018-08-25T02:40:54.208Z,13.20
2018-08-25T02:43:22.726Z,13.20
2018-08-25T02:45:51.352Z,13.40
2018-08-25T02:48:19.883Z,13.60
2018-08-25T02:50:48.580Z,13.80
2018-08-25T02:53:17.304Z,14.00
2018-08-25T02:55:46.117Z,14.20
2018-08-25T02:58:14.624Z,14.40
2018-08-25T03:00:43.281Z,14.50
2018-08-25T03:03:11.887Z,14.60
2018-08-25T03:05:40.470Z,14.70
2018-08-25T03:08:09.327Z,14.70
2018-08-25T03:10:38.010Z,14.80
2018-08-25T03:13:06.881Z,14.80
2018-08-25T03:15:35.531Z,14.80
2018-08-25T03:18:04.218Z,14.80
2018-08-25T03:20:32.719Z,14.80
2018-08-25T03:23:01.233Z,14.80
2018-08-25T03:25:29.836Z,14.80
2018-08-25T03:27:58.717Z,14.90
2018-08-25T03:30:27.281Z,14.80
2018-08-25T03:32:55.791Z,14.80
2018-08-25T03:35:24.685Z,14.80
2018-08-25T03:37:53.303Z,14.80
2018-08-25T03:40:21.815Z,14.90
2018-08-25T03:42:50.420Z,14.90
2018-08-25T03:45:18.959Z,14.90
2018-08-25T03:47:47.527Z,14.90
2018-08-25T03:50:16.068Z,15.00
2018-08-25T03:52:44.692Z,15.00
2018-08-25T03:55:13.333Z,15.00
2018-08-25T03:57:41.905Z,14.90
2018-08-25T04:00:10.623Z,14.90
2018-08-25T04:02:39.231Z,15.00
2018-08-25T04:05:07.813Z,14.90
2018-08-25T04:07:36.473Z,14.90
2018-08-25T04:10:05.178Z,14.90
2018-08-25T04:12:33.811Z,14.90
2018-08-25T04:15:02.628Z,14.90
2018-08-25T04:17:31.170Z,14.90
2018-08-25T04:20:02.827Z,14.80
2018-08-25T04:22:31.382Z,14.90
2018-08-25T04:24:59.925Z,14.90
2018-08-25T04:27:28.514Z,14.90
2018-08-25T04:29:57.052Z,14.90
2018-08-25T04:32:25.807Z,14.90
2018-08-25T04:34:54.566Z,14.80
2018-08-25T04:37:23.295Z,14.60
2018-08-25T04:39:52.012Z,14.60
2018-08-25T04:42:20.578Z,14.60
2018-08-25T04:44:49.105Z,14.50
2018-08-25T04:47:17.654Z,14.40
2018-08-25T04:49:46.245Z,14.20
2018-08-25T04:52:14.871Z,14.10
2018-08-25T04:54:43.571Z,14.00
2018-08-25T04:57:12.107Z,14.00
2018-08-25T04:59:40.801Z,13.80
2018-08-25T05:02:09.659Z,13.80
2018-08-25T05:04:38.277Z,13.80
2018-08-25T05:07:06.849Z,13.80
2018-08-25T05:09:35.527Z,13.70
2018-08-25T05:12:04.147Z,13.70
2018-08-25T05:14:33.016Z,13.60
2018-08-25T05:17:01.795Z,13.60
2018-08-25T05:19:30.374Z,13.70
2018-08-25T05:21:58.993Z,13.70
2018-08-25T05:24:27.768Z,13.70
2018-08-25T05:26:56.333Z,13.80
2018-08-25T05:29:24.964Z,13.70
2018-08-25T05:31:53.804Z,13.70
2018-08-25T05:34:22.450Z,13.70
2018-08-25T05:36:51.361Z,13.80
2018-08-25T05:39:19.882Z,13.80
2018-08-25T05:41:48.487Z,13.70
2018-08-25T05:44:17.087Z,13.60
2018-08-25T05:46:45.542Z,13.60
2018-08-25T05:49:14.122Z,13.70
2018-08-25T05:51:42.638Z,13.70
2018-08-25T05:54:11.222Z,13.50
2018-08-25T05:56:39.867Z,13.60
2018-08-25T05:59:08.690Z,13.50
2018-08-25T06:01:37.238Z,13.40
2018-08-25T06:04:06.027Z,13.50
2018-08-25T06:06:34.639Z,13.30
2018-08-25T06:09:04.161Z,13.20
2018-08-25T06:11:32.792Z,13.20
2018-08-25T06:14:01.422Z,13.20
2018-08-25T06:16:30.051Z,13.20
2018-08-25T06:18:58.579Z,13.10
2018-08-25T06:21:27.125Z,13.20
2018-08-25T06:23:55.979Z,13.20
2018-08-25T06:26:24.647Z,13.00
2018-08-25T06:28:53.374Z,13.00
2018-08-25T06:31:22.000Z,13.20
2018-08-25T06:33:50.613Z,13.30
2018-08-25T06:36:19.513Z,13.30
2018-08-25T06:38:48.089Z,13.30
2018-08-25T06:41:16.591Z,13.50
2018-08-25T06:43:45.160Z,13.50
2018-08-25T06:46:13.720Z,13.40
2018-08-25T06:48:42.515Z,13.40
2018-08-25T06:51:11.151Z,13.60
2018-08-25T06:53:39.812Z,13.80
2018-08-25T06:56:08.552Z,13.90
2018-08-25T06:58:37.226Z,14.10
2018-08-25T07:01:05.828Z,14.20
2018-08-25T07:03:34.453Z,14.50
2018-08-25T07:06:03.016Z,14.80
2018-08-25T07:08:31.573Z,14.80
2018-08-25T07:11:00.110Z,14.40
2018-08-25T07:13:28.644Z,14.60
2018-08-25T07:15:57.294Z,14.20
2018-08-25T07:18:25.892Z,13.80
2018-08-25T07:20:55.048Z,13.50
2018-08-25T07:23:23.987Z,13.60
2018-08-25T07:25:52.635Z,13.90
2018-08-25T07:28:21.406Z,14.10
2018-08-25T07:30:50.027Z,14.00
2018-08-25T07:33:18.627Z,14.20
2018-08-25T07:35:47.212Z,14.20
2018-08-25T07:38:15.857Z,14.00
2018-08-25T07:40:44.642Z,14.00
2018-08-25T07:43:13.240Z,14.30
2018-08-25T07:45:42.038Z,14.30
2018-08-25T07:48:10.754Z,14.40
2018-08-25T07:50:39.342Z,14.40
2018-08-25T07:53:07.911Z,14.30
2018-08-25T07:55:36.516Z,14.50
2018-08-25T07:58:05.233Z,14.40
2018-08-25T08:00:33.879Z,14.40
2018-08-25T08:03:02.509Z,14.40
2018-08-25T08:05:31.133Z,14.30
2018-08-25T08:07:59.902Z,14.50
2018-08-25T08:10:35.569Z,14.60
2018-08-25T08:13:04.157Z,14.40
2018-08-25T08:15:32.847Z,14.40
2018-08-25T08:18:01.664Z,14.40
2018-08-25T08:20:30.279Z,14.40
2018-08-25T08:22:59.248Z,14.60
2018-08-25T08:25:27.939Z,14.60
2018-08-25T08:28:03.334Z,14.70
2018-08-25T08:30:32.004Z,15.00
2018-08-25T08:33:00.765Z,15.20
2018-08-25T08:35:29.924Z,15.20
2018-08-25T08:37:58.949Z,15.30
2018-08-25T08:40:28.111Z,15.40
2018-08-25T08:42:57.220Z,15.40
2018-08-25T08:45:26.084Z,15.50
2018-08-25T08:47:54.806Z,15.50
2018-08-25T08:50:23.435Z,14.90
2018-08-25T08:52:52.070Z,14.90
2018-08-25T08:55:20.718Z,14.90
2018-08-25T08:57:49.413Z,15.00
2018-08-25T09:00:18.289Z,14.90
2018-08-25T09:02:47.080Z,15.20
2018-08-25T09:05:16.186Z,14.90
2018-08-25T09:07:44.893Z,14.90
2018-08-25T09:10:13.597Z,15.00
2018-08-25T09:12:42.156Z,15.10
2018-08-25T09:15:10.753Z,15.40
2018-08-25T09:17:39.359Z,14.90
2018-08-25T09:20:08.118Z,14.80
2018-08-25T09:22:36.977Z,14.30
2018-08-25T09:25:05.766Z,14.20
2018-08-25T09:27:34.529Z,13.90
2018-08-25T09:30:03.043Z,13.90
2018-08-25T09:32:32.096Z,14.00
2018-08-25T09:35:00.892Z,14.10
2018-08-25T09:37:29.494Z,14.20
2018-08-25T09:39:58.306Z,14.20
2018-08-25T09:42:26.946Z,14.10
2018-08-25T09:44:55.592Z,14.30
2018-08-25T09:47:24.481Z,14.50
2018-08-25T09:49:53.265Z,14.80
2018-08-25T09:52:22.124Z,14.70
2018-08-25T09:54:50.690Z,15.20
2018-08-25T09:57:19.494Z,15.50
2018-08-25T09:59:48.279Z,15.40
2018-08-25T10:02:16.968Z,15.30
2018-08-25T10:04:45.608Z,15.10
2018-08-25T10:07:14.489Z,14.90
2018-08-25T10:09:43.288Z,14.60
2018-08-25T10:12:12.010Z,14.60
2018-08-25T10:14:40.645Z,14.50
2018-08-25T10:17:09.443Z,14.40
2018-08-25T10:19:38.136Z,14.10
2018-08-25T10:22:07.021Z,14.20
2018-08-25T10:24:35.675Z,14.50
2018-08-25T10:27:04.589Z,14.80
2018-08-25T10:29:33.325Z,14.80
2018-08-25T10:32:02.099Z,15.20
2018-08-25T10:34:30.825Z,15.30
2018-08-25T10:36:59.634Z,15.40
2018-08-25T10:39:28.292Z,15.30
2018-08-25T10:41:57.088Z,15.20
2018-08-25T10:44:25.824Z,15.30
2018-08-25T10:46:54.450Z,15.10
2018-08-25T10:49:23.206Z,15.10
2018-08-25T10:51:52.433Z,15.10
2018-08-25T10:54:21.173Z,14.90
2018-08-25T10:56:49.883Z,14.80
2018-08-25T10:59:18.908Z,14.70
2018-08-25T11:01:47.698Z,14.60
2018-08-25T11:04:16.406Z,14.30
2018-08-25T11:06:45.040Z,14.20
2018-08-25T11:09:14.547Z,14.20
2018-08-25T11:11:43.270Z,14.30
2018-08-25T11:14:12.458Z,14.20
2018-08-25T11:16:41.192Z,14.30
2018-08-25T11:19:09.884Z,14.60
2018-08-25T11:21:39.107Z,14.80
2018-08-25T11:24:07.842Z,15.00
2018-08-25T11:26:36.600Z,15.00
2018-08-25T11:29:05.217Z,15.10
2018-08-25T11:31:34.026Z,15.30
2018-08-25T11:34:03.240Z,15.40
2018-08-25T11:36:31.886Z,15.80
2018-08-25T11:39:00.704Z,16.20
2018-08-25T11:41:29.525Z,16.60
2018-08-25T11:43:58.156Z,16.60
2018-08-25T11:46:26.828Z,16.20
2018-08-25T11:48:55.822Z,15.90
2018-08-25T11:51:24.485Z,15.70
2018-08-25T11:53:53.472Z,15.70
2018-08-25T11:56:22.209Z,15.70
2018-08-25T11:58:50.920Z,15.80
2018-08-25T12:01:19.554Z,16.20
2018-08-25T12:03:48.240Z,16.60
2018-08-25T12:06:17.112Z,16.50
2018-08-25T12:08:45.912Z,16.60
2018-08-25T12:11:14.630Z,16.80
2018-08-25T12:13:43.299Z,16.80
2018-08-25T12:16:12.060Z,16.80
2018-08-25T12:18:40.820Z,16.90
2018-08-25T12:21:09.612Z,16.60
2018-08-25T12:23:38.278Z,16.60
2018-08-25T12:26:07.057Z,16.60
2018-08-25T12:28:35.940Z,16.60
2018-08-25T12:31:04.711Z,16.70
2018-08-25T12:33:33.662Z,16.70
2018-08-25T12:36:02.595Z,16.70
2018-08-25T12:38:31.336Z,16.80
2018-08-25T12:41:00.022Z,16.80
2018-08-25T12:43:28.750Z,16.90
2018-08-25T12:45:57.404Z,16.70
2018-08-25T12:48:26.036Z,16.70
2018-08-25T12:50:54.950Z,16.80
2018-08-25T12:53:23.676Z,16.70
2018-08-25T12:55:52.397Z,16.70
2018-08-25T12:58:21.080Z,16.70
2018-08-25T13:00:49.875Z,16.80
2018-08-25T13:03:18.590Z,16.60
2018-08-25T13:05:47.411Z,16.50
2018-08-25T13:08:16.218Z,16.50
2018-08-25T13:10:45.263Z,16.40
2018-08-25T13:13:13.891Z,16.30
2018-08-25T13:15:42.490Z,16.40
2018-08-25T13:18:11.411Z,16.30
2018-08-25T13:20:40.173Z,16.10
2018-08-25T13:23:09.143Z,16.00
2018-08-25T13:25:37.723Z,16.00
2018-08-25T13:28:06.640Z,16.20
2018-08-25T13:30:35.611Z,16.40
2018-08-25T13:33:04.500Z,16.60
2018-08-25T13:35:33.228Z,16.70
2018-08-25T13:38:02.007Z,16.90
2018-08-25T13:40:30.732Z,17.00
2018-08-25T13:42:59.437Z,17.10
2018-08-25T13:45:28.178Z,17.30
2018-08-25T13:47:56.810Z,17.40
2018-08-25T13:50:25.415Z,17.30
2018-08-25T13:52:54.272Z,17.30
2018-08-25T13:55:22.969Z,17.20
2018-08-25T13:57:52.096Z,17.00
2018-08-25T14:00:20.743Z,16.70
2018-08-25T14:02:49.601Z,16.60
2018-08-25T14:05:18.283Z,16.80
2018-08-25T14:07:47.165Z,17.10
2018-08-25T14:10:16.198Z,17.10
2018-08-25T14:12:45.157Z,17.20
2018-08-25T14:15:14.211Z,17.40
2018-08-25T14:17:43.126Z,17.50
2018-08-25T14:20:11.713Z,17.60
2018-08-25T14:22:40.704Z,17.60
2018-08-25T14:25:09.352Z,17.70
2018-08-25T14:27:38.157Z,17.80
2018-08-25T14:30:07.781Z,17.80
2018-08-25T14:32:36.572Z,17.80
2018-08-25T14:35:05.886Z,17.80
2018-08-25T14:37:34.733Z,18.00
2018-08-25T14:40:03.409Z,18.00
2018-08-25T14:42:33.214Z,17.80
2018-08-25T14:45:02.064Z,17.60
2018-08-25T14:47:30.992Z,17.50
2018-08-25T14:49:59.716Z,17.20
2018-08-25T14:52:28.312Z,16.80
2018-08-25T14:54:56.963Z,16.40
2018-08-25T14:57:26.421Z,16.50
2018-08-25T14:59:55.021Z,16.50
2018-08-25T15:02:23.798Z,16.50
2018-08-25T15:04:52.510Z,16.40
2018-08-25T15:07:21.104Z,16.20
2018-08-25T15:09:50.142Z,16.20
2018-08-25T15:12:18.871Z,16.30
2018-08-25T15:14:47.810Z,16.40
2018-08-25T15:17:17.015Z,16.40
2018-08-25T15:19:45.907Z,16.50
2018-08-25T15:22:14.755Z,16.30
2018-08-25T15:24:43.830Z,16.20
2018-08-25T15:27:12.611Z,16.00
2018-08-25T15:29:41.264Z,15.70
2018-08-25T15:32:09.909Z,15.50
2018-08-25T15:34:38.560Z,14.50
2018-08-25T15:37:07.266Z,14.10
2018-08-25T15:39:35.875Z,13.70
2018-08-25T15:42:04.528Z,13.50
2018-08-25T15:44:33.341Z,13.40
2018-08-25T15:47:02.542Z,13.40
2018-08-25T15:49:31.256Z,13.10
2018-08-25T15:52:00.204Z,12.90
2018-08-25T15:54:29.071Z,12.90
2018-08-25T15:56:57.801Z,13.00
2018-08-25T15:59:26.430Z,13.20
2018-08-25T16:01:55.224Z,13.30
2018-08-25T16:04:23.961Z,13.50
2018-08-25T16:06:52.584Z,13.70
2018-08-25T16:09:21.400Z,13.90
2018-08-25T16:11:50.127Z,14.20
2018-08-25T16:14:18.855Z,14.40
2018-08-25T16:16:47.624Z,14.60
2018-08-25T16:19:16.310Z,14.70
2018-08-25T16:21:44.936Z,14.90
2018-08-25T16:24:13.667Z,14.90
2018-08-25T16:26:42.318Z,14.70
2018-08-25T16:29:11.132Z,14.70
2018-08-25T16:31:39.812Z,14.80
2018-08-25T16:34:08.531Z,14.60
2018-08-25T16:36:37.252Z,14.70
2018-08-25T16:39:07.452Z,14.70
2018-08-25T16:41:36.330Z,14.80
2018-08-25T16:44:04.987Z,14.80
2018-08-25T16:46:33.756Z,14.80
2018-08-25T16:49:02.614Z,14.80
2018-08-25T16:51:31.851Z,14.90
2018-08-25T16:54:00.632Z,15.00
2018-08-25T16:56:29.498Z,15.00
2018-08-25T16:58:58.186Z,15.10
2018-08-25T17:01:26.915Z,15.20
2018-08-25T17:03:56.011Z,15.20
2018-08-25T17:06:24.945Z,15.20
2018-08-25T17:08:53.684Z,15.00
2018-08-25T17:11:22.555Z,15.00
2018-08-25T17:13:51.583Z,15.00
2018-08-25T17:16:20.256Z,14.90
2018-08-25T17:18:49.250Z,14.80
2018-08-25T17:21:18.232Z,14.70
2018-08-25T17:23:46.895Z,14.50
2018-08-25T17:26:16.027Z,14.20
2018-08-25T17:28:44.650Z,14.20
2018-08-25T17:31:13.486Z,14.20
2018-08-25T17:33:42.109Z,14.20
2018-08-25T17:36:10.854Z,14.10
2018-08-25T17:38:39.581Z,14.10
2018-08-25T17:41:08.212Z,13.80
2018-08-25T17:43:37.016Z,13.40
2018-08-25T17:46:06.084Z,13.20
2018-08-25T17:48:34.973Z,12.90
2018-08-25T17:51:04.090Z,12.50
2018-08-25T17:53:32.797Z,12.40
2018-08-25T17:56:01.488Z,12.40
2018-08-25T17:58:30.221Z,12.30
2018-08-25T18:00:59.346Z,12.20
2018-08-25T18:03:28.083Z,12.00
2018-08-25T18:05:56.807Z,12.10
2018-08-25T18:08:25.672Z,12.10
2018-08-25T18:10:54.521Z,12.10
2018-08-25T18:13:23.315Z,12.10
2018-08-25T18:15:52.138Z,12.10
2018-08-25T18:18:21.216Z,12.00
2018-08-25T18:20:50.167Z,12.10
2018-08-25T18:23:25.353Z,12.10
2018-08-25T18:25:54.123Z,12.10
2018-08-25T18:28:23.101Z,12.10
2018-08-25T18:30:52.203Z,12.00
2018-08-25T18:33:21.655Z,12.00
2018-08-25T18:35:50.752Z,11.90
2018-08-25T18:38:19.529Z,12.00
2018-08-25T18:40:48.102Z,12.10
2018-08-25T18:43:17.181Z,12.20
2018-08-25T18:45:46.257Z,12.20
2018-08-25T18:48:15.460Z,12.20
2018-08-25T18:50:44.440Z,12.20
2018-08-25T18:53:13.463Z,12.10
2018-08-25T18:55:42.315Z,12.10
2018-08-25T18:58:10.958Z,12.10
2018-08-25T19:00:40.254Z,12.10
2018-08-25T19:03:09.096Z,12.00
2018-08-25T19:05:37.814Z,12.00
2018-08-25T19:08:06.978Z,12.00
2018-08-25T19:10:35.905Z,11.90
2018-08-25T19:13:05.197Z,11.90
2018-08-25T19:15:33.969Z,11.90
2018-08-25T19:18:03.036Z,12.00
2018-08-25T19:20:32.156Z,12.00
2018-08-25T19:23:01.591Z,11.90
2018-08-25T19:25:30.748Z,11.90
2018-08-25T19:27:59.867Z,11.80
2018-08-25T19:30:29.046Z,11.70
2018-08-25T19:32:58.343Z,11.70
2018-08-25T19:35:27.702Z,11.60
2018-08-25T19:37:57.049Z,11.60
2018-08-25T19:40:26.239Z,11.60
2018-08-25T19:42:55.357Z,11.60
2018-08-25T19:45:24.542Z,11.60
2018-08-25T19:47:53.841Z,11.50
2018-08-25T19:50:23.276Z,11.60
2018-08-25T19:52:52.474Z,11.60
2018-08-25T19:55:21.837Z,11.70
2018-08-25T19:57:51.122Z,11.60
2018-08-25T20:00:20.388Z,11.50
2018-08-25T20:02:49.607Z,11.60
2018-08-25T20:05:19.006Z,11.60
2018-08-25T20:07:47.729Z,11.60
2018-08-25T20:10:16.604Z,11.50
2018-08-25T20:12:45.399Z,11.50
2018-08-25T20:15:14.263Z,11.50
2018-08-25T20:17:43.311Z,11.40
2018-08-25T20:20:12.161Z,11.40
2018-08-25T20:22:41.157Z,11.30
2018-08-25T20:25:10.071Z,11.30
2018-08-25T20:27:38.753Z,11.20
2018-08-25T20:30:08.581Z,11.20
2018-08-25T20:32:37.861Z,11.10
2018-08-25T20:35:06.533Z,11.10
2018-08-25T20:37:35.296Z,11.20
2018-08-25T20:40:04.174Z,11.20
2018-08-25T20:42:33.208Z,11.20
2018-08-25T20:45:02.202Z,11.20
2018-08-25T20:47:30.936Z,11.10
2018-08-25T20:49:59.557Z,11.10
2018-08-25T20:52:28.415Z,11.10
2018-08-25T20:54:57.402Z,11.10
2018-08-25T20:57:26.850Z,11.00
2018-08-25T20:59:55.929Z,11.00
2018-08-25T21:02:25.068Z,10.90
2018-08-25T21:04:53.871Z,10.80
2018-08-25T21:07:22.704Z,10.80
2018-08-25T21:09:51.512Z,10.70
2018-08-25T21:12:20.226Z,10.70
2018-08-25T21:14:49.030Z,10.70
2018-08-25T21:17:17.712Z,10.60
2018-08-25T21:19:46.566Z,10.60
2018-08-25T21:22:15.532Z,10.70
2018-08-25T21:24:44.118Z,10.70
2018-08-25T21:27:13.019Z,10.70
2018-08-25T21:29:41.716Z,10.60
2018-08-25T21:32:10.686Z,10.60
2018-08-25T21:34:39.318Z,10.50
2018-08-25T21:37:08.389Z,10.50
2018-08-25T21:39:37.550Z,10.50
2018-08-25T21:42:06.586Z,10.50
2018-08-25T21:44:35.559Z,10.30
2018-08-25T21:47:04.471Z,10.20
2018-08-25T21:49:33.504Z,10.20
2018-08-25T21:52:02.184Z,10.10
2018-08-25T21:54:30.851Z,10.10
2018-08-25T21:56:59.684Z,10.00
2018-08-25T21:59:28.605Z,10.00
2018-08-25T22:01:57.446Z,10.00
2018-08-25T22:04:27.581Z,10.00
2018-08-25T22:06:57.079Z,10.00
2018-08-25T22:09:26.121Z,10.00
2018-08-25T22:11:55.121Z,10.00
2018-08-25T22:14:24.282Z,9.90
2018-08-25T22:16:53.184Z,9.90
2018-08-25T22:19:21.980Z,9.90
2018-08-25T22:21:50.618Z,9.80
2018-08-25T22:24:19.252Z,9.80
2018-08-25T22:26:48.139Z,9.80
2018-08-25T22:29:23.718Z,9.80
2018-08-25T22:31:52.412Z,9.70
2018-08-25T22:34:21.199Z,9.70
2018-08-25T22:36:49.921Z,9.60
2018-08-25T22:39:18.741Z,9.60
2018-08-25T22:41:47.488Z,9.60
2018-08-25T22:44:16.385Z,9.60
2018-08-25T22:46:45.235Z,9.70
2018-08-25T22:49:14.013Z,9.70
2018-08-25T22:51:42.886Z,9.70
2018-08-25T22:54:11.571Z,9.70
2018-08-25T22:56:40.301Z,9.70
2018-08-25T22:59:09.018Z,9.70
2018-08-25T23:01:37.607Z,9.70
2018-08-25T23:04:06.653Z,9.50
2018-08-25T23:06:35.307Z,9.40
2018-08-25T23:09:05.774Z,9.40
2018-08-25T23:11:34.565Z,9.40
2018-08-25T23:14:03.217Z,9.40
2018-08-25T23:16:31.822Z,9.20
2018-08-25T23:19:00.518Z,9.10
2018-08-25T23:21:29.239Z,9.10
2018-08-25T23:23:57.885Z,9.00
2018-08-25T23:26:26.600Z,8.90
2018-08-25T23:28:55.288Z,8.90
2018-08-25T23:31:23.948Z,9.00
2018-08-25T23:33:52.725Z,9.00
2018-08-25T23:36:21.368Z,9.10
2018-08-25T23:38:50.235Z,9.10
2018-08-25T23:41:18.854Z,9.10
2018-08-25T23:43:47.404Z,9.00
2018-08-25T23:46:15.983Z,9.00
2018-08-25T23:48:44.767Z,9.00
2018-08-25T23:51:13.435Z,9.00
2018-08-25T23:53:42.195Z,9.10
2018-08-25T23:56:10.904Z,9.10
2018-08-25T23:58:39.435Z,9.00
